Time;durP1;ratioP1;P1;durP2;ratioP2;P2;SDS_P1;SDS_P2;PMS_P1;PMS_P2;Temp;Humidity;BMP_temperature;BMP_pressure;BME280_temperature;BME280_humidity;BME280_pressure;Samples;Min_cycle;Max_cycle;Signal;HPM_P1;HPM_P2
2024/02/01 00:00:20;;;;;;;4.10;3.37;;;7.10;99.90;;;;;;4847368;29;20261;-68
2024/02/01 00:02:46;;;;;;;4.30;3.03;;;7.20;99.90;;;;;;4848021;29;20422;-69
2024/02/01 00:05:11;;;;;;;7.07;4.60;;;7.20;99.90;;;;;;4847282;29;20661;-68
2024/02/01 00:07:37;;;;;;;7.00;3.37;;;7.30;99.90;;;;;;4847119;29;20324;-71
2024/02/01 00:10:03;;;;;;;9.77;4.33;;;7.50;99.90;;;;;;4847258;29;20308;-69
2024/02/01 00:12:28;;;;;;;7.67;5.17;;;7.60;99.90;;;;;;4846976;29;20193;-67
2024/02/01 00:14:54;;;;;;;9.13;4.20;;;7.80;99.90;;;;;;4847447;29;20484;-69
2024/02/01 00:17:19;;;;;;;6.00;5.03;;;7.90;99.90;;;;;;4847541;29;20217;-70
2024/02/01 00:19:45;;;;;;;5.43;3.90;;;8.00;99.90;;;;;;4850350;29;20201;-70
2024/02/01 00:22:10;;;;;;;6.40;5.20;;;8.10;99.90;;;;;;4849733;29;20276;-69
2024/02/01 00:24:36;;;;;;;5.97;4.30;;;8.20;99.90;;;;;;4845867;29;20595;-69
2024/02/01 00:27:02;;;;;;;7.17;4.70;;;8.20;99.90;;;;;;4846221;29;20283;-69
2024/02/01 00:29:27;;;;;;;8.83;4.90;;;8.20;99.90;;;;;;4846770;29;20221;-66
2024/02/01 00:31:53;;;;;;;7.30;4.57;;;8.30;99.90;;;;;;4846214;29;20196;-69
2024/02/01 00:34:18;;;;;;;4.80;3.80;;;8.30;99.90;;;;;;4845866;29;20199;-67
2024/02/01 00:36:44;;;;;;;8.20;4.23;;;8.30;99.90;;;;;;4845848;29;20252;-67
2024/02/01 00:39:09;;;;;;;8.00;5.03;;;8.30;99.90;;;;;;4845254;29;20200;-67
2024/02/01 00:41:35;;;;;;;7.30;5.07;;;8.40;99.90;;;;;;4846187;29;20590;-69
2024/02/01 00:44:00;;;;;;;5.57;4.43;;;8.40;99.90;;;;;;4846143;29;20258;-68
2024/02/01 00:46:26;;;;;;;7.13;4.97;;;8.40;99.90;;;;;;4846548;29;20225;-70
2024/02/01 00:48:52;;;;;;;5.33;4.27;;;8.40;99.90;;;;;;4850390;29;20504;-66
2024/02/01 00:51:17;;;;;;;6.17;4.60;;;8.40;99.90;;;;;;4847272;29;20200;-67
2024/02/01 00:53:43;;;;;;;8.80;5.27;;;8.50;99.90;;;;;;4847623;29;20430;-68
2024/02/01 00:56:08;;;;;;;7.73;5.43;;;8.50;99.90;;;;;;4845448;29;20201;-67
2024/02/01 00:58:34;;;;;;;9.97;5.80;;;8.50;99.90;;;;;;4846800;29;20208;-69
2024/02/01 01:00:59;;;;;;;7.43;4.70;;;8.50;99.90;;;;;;4844059;29;20606;-67
2024/02/01 01:03:25;;;;;;;5.57;4.77;;;8.50;99.90;;;;;;4847781;29;20242;-67
2024/02/01 01:05:51;;;;;;;6.80;5.23;;;8.50;99.90;;;;;;4843274;29;20232;-69
2024/02/01 01:08:16;;;;;;;5.90;5.20;;;8.50;99.90;;;;;;4843235;29;20217;-66
2024/02/01 01:10:42;;;;;;;9.33;5.40;;;8.50;99.90;;;;;;4842698;29;20583;-67
2024/02/01 01:13:08;;;;;;;8.97;6.20;;;8.60;99.90;;;;;;4842852;29;20221;-67
2024/02/01 01:15:33;;;;;;;11.13;8.30;;;8.50;99.90;;;;;;4842803;29;20445;-68
2024/02/01 01:17:59;;;;;;;11.27;6.13;;;8.60;99.90;;;;;;4846210;29;20188;-68
2024/02/01 01:20:24;;;;;;;13.30;6.77;;;8.60;99.90;;;;;;4847899;29;20236;-67
2024/02/01 01:22:50;;;;;;;7.10;5.13;;;8.60;99.90;;;;;;4843397;29;20228;-66
2024/02/01 01:25:16;;;;;;;7.20;5.23;;;8.50;99.90;;;;;;4843427;29;20201;-68
2024/02/01 01:27:42;;;;;;;10.53;5.70;;;8.60;99.90;;;;;;4842889;29;20224;-66
2024/02/01 01:30:08;;;;;;;9.87;6.17;;;8.60;99.90;;;;;;4843047;29;20422;-67
2024/02/01 01:32:34;;;;;;;6.93;5.43;;;8.60;99.90;;;;;;4843232;29;20610;-68
2024/02/01 01:35:00;;;;;;;7.80;5.73;;;8.60;99.90;;;;;;4844881;29;20441;-67
2024/02/01 01:37:26;;;;;;;9.40;5.80;;;8.50;99.90;;;;;;4842977;29;20688;-67
2024/02/01 01:39:52;;;;;;;7.33;5.90;;;8.50;99.90;;;;;;4842864;29;20430;-67
2024/02/01 01:42:17;;;;;;;9.00;6.50;;;8.40;99.90;;;;;;4842645;29;20426;-67
2024/02/01 01:44:43;;;;;;;8.83;6.13;;;8.30;99.90;;;;;;4842994;29;20197;-67
2024/02/01 01:47:09;;;;;;;9.63;5.67;;;8.20;99.90;;;;;;4843016;29;20631;-66
2024/02/01 01:49:35;;;;;;;9.30;5.70;;;8.10;99.90;;;;;;4846957;29;20205;-67
2024/02/01 01:52:02;;;;;;;7.97;5.77;;;8.00;99.90;;;;;;4849718;29;20553;-66
2024/02/01 01:54:30;;;;;;;9.43;6.83;;;7.90;99.90;;;;;;4849962;29;20881;-66
2024/02/01 01:56:57;;;;;;;9.57;6.30;;;7.90;99.90;;;;;;4846285;29;20433;-70
2024/02/01 01:59:23;;;;;;;11.63;6.13;;;7.80;99.90;;;;;;4846385;29;20434;-67
2024/02/01 02:01:51;;;;;;;7.47;5.43;;;7.70;99.90;;;;;;4846649;29;20438;-68
2024/02/01 02:04:17;;;;;;;11.13;7.30;;;7.70;99.90;;;;;;4849993;29;20531;-69
2024/02/01 02:06:43;;;;;;;12.20;7.80;;;7.60;99.90;;;;;;4846279;29;20966;-68
2024/02/01 02:09:12;;;;;;;12.23;8.20;;;7.60;99.90;;;;;;4846079;29;20622;-69
2024/02/01 02:11:43;;;;;;;10.10;7.87;;;7.50;99.90;;;;;;4846097;29;20864;-67
2024/02/01 02:14:13;;;;;;;13.17;9.00;;;7.50;99.90;;;;;;4845494;29;20514;-67
2024/02/01 02:16:39;;;;;;;16.30;10.77;;;7.50;99.90;;;;;;4846299;29;20492;-67
2024/02/01 02:19:11;;;;;;;12.10;9.00;;;7.50;99.90;;;;;;4847436;29;20433;-67
2024/02/01 02:21:43;;;;;;;15.67;9.77;;;7.40;99.90;;;;;;4848197;29;20259;-69
2024/02/01 02:24:09;;;;;;;13.27;9.37;;;7.40;99.90;;;;;;4846271;29;20462;-70
2024/02/01 02:26:35;;;;;;;25.40;11.83;;;7.40;99.90;;;;;;4846043;29;20458;-68
2024/02/01 02:29:03;;;;;;;16.73;10.97;;;7.40;99.90;;;;;;4845481;29;20471;-66
2024/02/01 02:31:28;;;;;;;15.03;9.83;;;7.40;99.90;;;;;;4846539;29;20225;-69
2024/02/01 02:33:54;;;;;;;14.47;9.80;;;7.40;99.90;;;;;;4848837;29;20802;-69
2024/02/01 02:36:20;;;;;;;13.00;9.23;;;7.40;99.90;;;;;;4848192;29;20592;-67
2024/02/01 02:38:45;;;;;;;11.00;8.07;;;7.40;99.90;;;;;;4846571;29;20205;-69
2024/02/01 02:41:11;;;;;;;11.27;8.23;;;7.40;99.90;;;;;;4849020;29;20434;-69
2024/02/01 02:43:37;;;;;;;11.13;8.23;;;7.40;99.90;;;;;;4848517;29;20181;-69
2024/02/01 02:46:02;;;;;;;9.07;6.67;;;7.40;99.90;;;;;;4847319;29;20643;-69
2024/02/01 02:48:31;;;;;;;10.63;7.57;;;7.40;99.90;;;;;;4850659;29;20277;-70
2024/02/01 02:50:57;;;;;;;9.83;7.90;;;7.40;99.90;;;;;;4849059;29;20197;-67
2024/02/01 02:53:22;;;;;;;11.13;7.50;;;7.40;99.90;;;;;;4849731;29;20421;-68
2024/02/01 02:55:48;;;;;;;10.63;8.70;;;7.40;99.90;;;;;;4849979;29;20304;-67
2024/02/01 02:58:14;;;;;;;9.07;7.40;;;7.40;99.90;;;;;;4850850;29;20193;-67
2024/02/01 03:00:39;;;;;;;12.13;7.13;;;7.40;99.90;;;;;;4846050;29;20232;-68
2024/02/01 03:03:05;;;;;;;8.80;6.77;;;7.40;99.90;;;;;;4851514;29;20609;-67
2024/02/01 03:05:30;;;;;;;11.10;7.27;;;7.40;99.90;;;;;;4849993;29;20237;-68
2024/02/01 03:07:56;;;;;;;10.60;7.27;;;7.40;99.90;;;;;;4847735;29;20217;-69
2024/02/01 03:10:21;;;;;;;10.33;7.17;;;7.40;99.90;;;;;;4847844;29;20211;-69
2024/02/01 03:12:47;;;;;;;8.83;7.20;;;7.40;99.90;;;;;;4846392;29;20197;-69
2024/02/01 03:15:13;;;;;;;9.97;7.10;;;7.50;99.90;;;;;;4848030;29;20572;-69
2024/02/01 03:17:40;;;;;;;10.90;6.40;;;7.40;99.90;;;;;;4848107;29;20204;-68
2024/02/01 03:20:22;;;;;;;8.07;5.40;;;7.40;99.90;;;;;;4855522;29;20214;-68
2024/02/01 03:22:48;;;;;;;7.37;6.00;;;7.40;99.90;;;;;;4849276;29;20561;-67
2024/02/01 03:25:14;;;;;;;7.87;4.97;;;7.40;99.90;;;;;;4852529;29;20709;-68
2024/02/01 03:27:45;;;;;;;5.70;4.50;;;7.40;99.90;;;;;;4855523;29;20504;-66
2024/02/01 03:30:12;;;;;;;7.87;5.17;;;7.40;99.90;;;;;;4854376;29;20645;-69
2024/02/01 03:32:39;;;;;;;6.60;5.00;;;7.40;99.90;;;;;;4855842;29;20422;-69
2024/02/01 03:35:05;;;;;;;8.70;4.70;;;7.50;99.90;;;;;;4858576;29;20438;-67
2024/02/01 03:37:31;;;;;;;5.60;4.10;;;7.40;99.90;;;;;;4854587;29;20502;-67
2024/02/01 03:39:57;;;;;;;6.07;4.40;;;7.50;99.90;;;;;;4853355;29;20496;-68
2024/02/01 03:42:22;;;;;;;4.87;3.90;;;7.50;99.90;;;;;;4847078;29;20248;-68
2024/02/01 03:44:48;;;;;;;7.20;4.90;;;7.50;99.90;;;;;;4844877;29;20446;-67
2024/02/01 03:47:13;;;;;;;5.10;4.33;;;7.50;99.90;;;;;;4845378;29;20254;-67
2024/02/01 03:49:40;;;;;;;5.83;4.60;;;7.50;99.90;;;;;;4847893;29;20499;-66
2024/02/01 03:52:09;;;;;;;5.60;4.23;;;7.50;99.90;;;;;;4843931;29;20193;-67
2024/02/01 03:54:38;;;;;;;5.87;4.43;;;7.50;99.90;;;;;;4844199;29;20453;-68
2024/02/01 03:57:04;;;;;;;4.87;4.27;;;7.50;99.90;;;;;;4844315;29;20430;-67
2024/02/01 03:59:31;;;;;;;6.43;4.10;;;7.50;99.90;;;;;;4844441;29;20422;-67
2024/02/01 04:02:03;;;;;;;4.47;4.07;;;7.50;99.90;;;;;;4844394;29;20419;-67
2024/02/01 04:04:30;;;;;;;5.80;4.70;;;7.50;99.90;;;;;;4847952;29;20498;-65
2024/02/01 04:06:55;;;;;;;6.77;4.80;;;7.50;99.90;;;;;;4844051;29;20446;-68
2024/02/01 04:09:21;;;;;;;9.40;5.93;;;7.50;99.90;;;;;;4844070;29;20481;-68
2024/02/01 04:11:47;;;;;;;8.23;5.13;;;7.60;99.90;;;;;;4843431;29;20280;-67
2024/02/01 04:14:12;;;;;;;7.87;5.20;;;7.60;99.90;;;;;;4843114;29;20240;-68
2024/02/01 04:16:38;;;;;;;8.40;5.97;;;7.60;99.90;;;;;;4843650;29;20220;-66
2024/02/01 04:19:03;;;;;;;6.27;5.53;;;7.60;99.90;;;;;;4846062;29;20231;-66
2024/02/01 04:21:29;;;;;;;8.07;5.80;;;7.60;99.90;;;;;;4847419;29;20193;-67
2024/02/01 04:23:54;;;;;;;7.90;5.70;;;7.60;99.90;;;;;;4846169;29;20503;-68
2024/02/01 04:26:20;;;;;;;8.17;5.60;;;7.60;99.90;;;;;;4846593;29;20281;-67
2024/02/01 04:28:51;;;;;;;8.37;7.27;;;7.70;99.90;;;;;;4852863;29;20474;-68
2024/02/01 04:31:17;;;;;;;16.40;8.43;;;7.60;99.90;;;;;;4844831;29;20196;-65
2024/02/01 04:33:43;;;;;;;8.93;7.17;;;7.60;99.90;;;;;;4845024;29;20442;-67
2024/02/01 04:36:08;;;;;;;14.23;7.93;;;7.60;99.90;;;;;;4842910;29;20593;-68
2024/02/01 04:38:35;;;;;;;13.13;8.73;;;7.70;99.90;;;;;;4846112;29;20220;-69
2024/02/01 04:41:00;;;;;;;12.33;9.73;;;7.70;99.90;;;;;;4846954;29;20296;-67
2024/02/01 04:43:26;;;;;;;11.27;8.53;;;7.70;99.90;;;;;;4847899;29;20450;-67
2024/02/01 04:45:52;;;;;;;10.40;7.73;;;7.70;99.90;;;;;;4848758;29;20233;-69
2024/02/01 04:48:17;;;;;;;8.93;7.30;;;7.70;99.90;;;;;;4846888;29;20228;-66
2024/02/01 04:50:43;;;;;;;12.40;7.50;;;7.70;99.90;;;;;;4845369;29;20197;-69
2024/02/01 04:53:08;;;;;;;9.50;7.67;;;7.70;99.90;;;;;;4845025;29;20188;-67
2024/02/01 04:55:34;;;;;;;9.00;7.73;;;7.70;99.90;;;;;;4842892;29;20232;-68
2024/02/01 04:58:00;;;;;;;11.57;8.77;;;7.80;99.90;;;;;;4843008;29;20281;-67
2024/02/01 05:00:26;;;;;;;12.00;8.00;;;7.70;99.90;;;;;;4843834;29;20225;-68
2024/02/01 05:02:52;;;;;;;12.07;9.40;;;7.80;99.90;;;;;;4847909;29;20192;-69
2024/02/01 05:05:19;;;;;;;12.37;9.77;;;7.80;99.90;;;;;;4845144;29;20761;-68
2024/02/01 05:07:45;;;;;;;11.90;8.40;;;7.80;99.90;;;;;;4829580;29;20469;-67
2024/02/01 05:10:12;;;;;;;11.80;9.47;;;7.80;99.90;;;;;;4845501;29;20434;-68
2024/02/01 05:12:42;;;;;;;12.90;9.60;;;7.80;99.90;;;;;;4845338;29;20212;-67
2024/02/01 05:15:11;;;;;;;16.07;10.27;;;7.80;99.90;;;;;;4844980;29;20527;-67
2024/02/01 05:17:38;;;;;;;16.40;10.30;;;7.80;99.90;;;;;;4848156;29;20442;-68
2024/02/01 05:20:11;;;;;;;16.40;10.27;;;7.80;99.90;;;;;;4846858;29;20897;-68
2024/02/01 05:22:38;;;;;;;14.47;9.57;;;7.90;99.90;;;;;;4845852;29;20453;-66
2024/02/01 05:25:14;;;;;;;13.00;8.00;;;7.90;99.90;;;;;;4849206;29;20796;-68
2024/02/01 05:27:45;;;;;;;12.33;9.40;;;7.90;99.90;;;;;;4850587;29;20508;-68
2024/02/01 05:30:11;;;;;;;15.40;9.00;;;7.90;99.90;;;;;;4851179;29;20426;-67
2024/02/01 05:32:52;;;;;;;14.73;8.90;;;7.90;99.90;;;;;;4851290;29;20520;-68
2024/02/01 05:35:28;;;;;;;13.77;9.30;;;7.90;99.90;;;;;;4844455;29;20429;-68
2024/02/01 05:37:56;;;;;;;15.20;9.37;;;7.90;99.90;;;;;;4847856;29;20859;-68
2024/02/01 05:40:22;;;;;;;16.60;10.10;;;8.00;99.90;;;;;;4851426;29;20429;-66
2024/02/01 05:42:48;;;;;;;16.83;10.70;;;8.00;99.90;;;;;;4851069;29;20426;-68
2024/02/01 05:45:17;;;;;;;14.37;11.27;;;8.00;99.90;;;;;;4849596;29;20422;-68
2024/02/01 05:47:42;;;;;;;16.50;11.13;;;8.00;99.90;;;;;;4849650;29;20473;-66
2024/02/01 05:50:11;;;;;;;19.17;11.40;;;8.00;99.90;;;;;;4857056;29;20843;-68
2024/02/01 05:52:37;;;;;;;18.73;11.70;;;8.00;99.90;;;;;;4850944;29;20222;-67
2024/02/01 05:55:07;;;;;;;17.90;10.93;;;8.00;99.90;;;;;;4849295;29;20434;-68
2024/02/01 05:57:34;;;;;;;19.13;11.93;;;8.10;99.90;;;;;;4844047;29;20458;-69
2024/02/01 06:00:00;;;;;;;17.80;11.10;;;8.00;99.90;;;;;;4865133;29;20422;-66
2024/02/01 06:02:29;;;;;;;20.13;12.00;;;8.00;99.90;;;;;;4849117;29;20445;-72
2024/02/01 06:04:54;;;;;;;20.87;12.97;;;8.00;99.90;;;;;;4852754;29;20476;-69
2024/02/01 06:07:20;;;;;;;20.37;11.77;;;8.00;99.90;;;;;;4849261;29;20892;-67
2024/02/01 06:09:45;;;;;;;22.47;12.40;;;8.10;99.90;;;;;;4849505;29;20189;-67
2024/02/01 06:12:11;;;;;;;26.30;13.60;;;8.00;99.90;;;;;;4848567;29;20205;-70
2024/02/01 06:14:37;;;;;;;18.30;11.93;;;8.00;99.90;;;;;;4848716;29;20257;-68
2024/02/01 06:17:03;;;;;;;23.00;12.27;;;8.00;99.90;;;;;;4849673;29;20243;-69
2024/02/01 06:19:28;;;;;;;19.77;12.57;;;8.10;99.90;;;;;;4851076;29;20205;-69
2024/02/01 06:21:55;;;;;;;21.57;12.77;;;8.10;99.90;;;;;;4847466;29;20536;-68
2024/02/01 06:24:20;;;;;;;28.70;16.70;;;8.10;99.90;;;;;;4849752;29;20438;-69
2024/02/01 06:26:46;;;;;;;29.13;15.87;;;8.10;99.90;;;;;;4849261;29;20213;-72
2024/02/01 06:29:12;;;;;;;28.87;15.70;;;8.10;99.90;;;;;;4850045;29;20227;-74
2024/02/01 06:31:38;;;;;;;27.57;15.13;;;8.10;99.90;;;;;;4850110;29;20507;-70
2024/02/01 06:34:05;;;;;;;24.50;14.90;;;8.10;99.90;;;;;;4853695;29;20190;-69
2024/02/01 06:36:39;;;;;;;22.50;13.00;;;8.10;99.90;;;;;;4849547;29;20533;-68
2024/02/01 06:39:10;;;;;;;21.93;12.07;;;8.10;99.90;;;;;;4853253;29;20425;-69
2024/02/01 06:41:51;;;;;;;23.00;12.93;;;8.10;99.90;;;;;;4850449;29;20433;-71
2024/02/01 06:44:26;;;;;;;23.83;14.10;;;8.10;99.90;;;;;;4846641;29;20471;-73
2024/02/01 06:54:50;;;;;;;22.83;12.77;;;8.00;99.90;;;;;;4856924;29;20428;-71
2024/02/01 06:57:22;;;;;;;26.20;14.70;;;8.00;99.90;;;;;;4849335;29;20506;-70
2024/02/01 07:02:35;;;;;;;29.93;16.47;;;8.00;99.90;;;;;;4848416;29;20514;-68
2024/02/01 07:05:11;;;;;;;35.27;16.67;;;8.00;99.90;;;;;;4849106;29;20522;-67
2024/02/01 07:07:45;;;;;;;33.60;17.20;;;8.00;99.90;;;;;;4850093;29;20754;-75
2024/02/01 07:10:17;;;;;;;32.20;19.23;;;7.90;99.90;;;;;;4849801;29;20535;-70
2024/02/01 07:12:53;;;;;;;36.17;18.07;;;7.90;99.90;;;;;;4851333;29;20459;-71
2024/02/01 07:15:30;;;;;;;35.77;18.60;;;7.70;99.90;;;;;;4849735;29;20433;-70
2024/02/01 07:18:05;;;;;;;30.60;19.03;;;7.60;99.90;;;;;;4849610;29;20465;-72
2024/02/01 07:20:50;;;;;;;28.57;16.77;;;7.50;99.90;;;;;;4850942;29;20441;-71
2024/02/01 07:25:48;;;;;;;34.40;15.77;;;7.30;99.90;;;;;;4851003;29;20813;-71
2024/02/01 07:58:37;;;;;;;30.50;13.23;;;7.10;99.90;;;;;;4849553;29;20462;-70
2024/02/01 08:01:13;;;;;;;30.83;15.03;;;7.10;99.90;;;;;;4850316;29;20720;-71
2024/02/01 08:03:59;;;;;;;33.20;17.53;;;7.00;99.90;;;;;;4848603;29;20537;-72
2024/02/01 08:09:12;;;;;;;33.10;16.20;;;7.00;99.90;;;;;;4841377;29;20562;-72
2024/02/01 08:11:43;;;;;;;35.37;17.37;;;7.00;99.90;;;;;;4850534;29;20458;-71
2024/02/01 08:14:10;;;;;;;42.03;16.60;;;7.10;99.90;;;;;;4850597;29;20438;-72
2024/02/01 08:16:39;;;;;;;36.93;15.93;;;7.00;99.90;;;;;;4849670;29;20453;-71
2024/02/01 08:19:06;;;;;;;20.37;10.90;;;6.80;99.90;;;;;;4858188;29;20524;-73
2024/02/01 08:21:36;;;;;;;28.27;9.63;;;6.70;99.90;;;;;;4853302;29;20473;-72
2024/02/01 08:24:05;;;;;;;30.40;10.53;;;6.50;99.90;;;;;;4850717;29;20498;-73
2024/02/01 08:26:37;;;;;;;27.73;8.33;;;6.30;99.90;;;;;;4848937;29;20972;-74
2024/02/01 08:29:06;;;;;;;21.67;7.10;;;6.30;99.90;;;;;;4851506;29;20484;-71
2024/02/01 08:31:36;;;;;;;22.20;6.87;;;6.10;99.90;;;;;;4850214;29;20427;-71
2024/02/01 08:34:05;;;;;;;20.27;5.87;;;5.90;99.90;;;;;;4857078;29;20442;-71
2024/02/01 08:36:31;;;;;;;12.50;4.80;;;5.80;99.90;;;;;;4866486;29;20450;-74
2024/02/01 08:38:59;;;;;;;15.57;5.00;;;5.70;99.90;;;;;;4850803;29;20434;-73
2024/02/01 08:41:25;;;;;;;13.07;3.40;;;5.60;99.90;;;;;;4853042;29;20721;-74
2024/02/01 08:43:51;;;;;;;10.73;4.23;;;5.50;99.90;;;;;;4853880;29;20465;-74
2024/02/01 08:46:22;;;;;;;24.53;5.47;;;5.50;99.90;;;;;;4854830;29;20461;-74
2024/02/01 08:48:49;;;;;;;27.97;4.70;;;5.30;99.90;;;;;;4858415;29;20225;-72
2024/02/01 08:51:17;;;;;;;27.47;4.90;;;5.40;99.90;;;;;;4853804;29;20707;-74
2024/02/01 08:53:43;;;;;;;21.87;4.80;;;5.30;99.90;;;;;;4853882;29;20426;-75
2024/02/01 08:56:08;;;;;;;22.23;4.67;;;5.30;99.90;;;;;;4855673;29;20462;-75
2024/02/01 08:58:38;;;;;;;40.67;4.67;;;5.30;99.90;;;;;;4869813;29;20185;-75
2024/02/01 09:01:05;;;;;;;32.03;4.40;;;5.20;99.90;;;;;;4870578;29;20185;-75
2024/02/01 09:03:32;;;;;;;18.83;4.23;;;5.20;99.90;;;;;;4858124;29;20435;-75
2024/02/01 09:06:08;;;;;;;27.87;4.43;;;5.10;99.90;;;;;;4854828;29;20454;-74
2024/02/01 09:08:39;;;;;;;19.50;4.23;;;5.20;99.90;;;;;;4868206;29;20501;-71
2024/02/01 09:11:11;;;;;;;20.30;3.93;;;5.20;99.90;;;;;;4853033;29;20483;-73
2024/02/01 09:13:38;;;;;;;14.07;3.40;;;5.30;99.90;;;;;;4852671;29;20462;-72
2024/02/01 09:16:04;;;;;;;19.57;4.10;;;5.20;99.90;;;;;;4855000;29;20454;-73
2024/02/01 09:18:30;;;;;;;14.73;3.57;;;5.30;99.90;;;;;;4855309;29;20438;-73
2024/02/01 09:20:55;;;;;;;22.63;4.60;;;5.20;99.90;;;;;;4854819;29;20437;-75
2024/02/01 09:23:24;;;;;;;20.50;4.73;;;5.30;99.90;;;;;;4851449;29;20197;-75
2024/02/01 09:25:50;;;;;;;34.53;5.77;;;5.30;99.90;;;;;;4849944;29;20228;-75
2024/02/01 09:28:15;;;;;;;25.33;4.47;;;5.40;99.90;;;;;;4847939;29;20470;-73
2024/02/01 09:30:45;;;;;;;16.17;3.30;;;5.50;99.90;;;;;;4867953;29;20425;-71
2024/02/01 09:33:24;;;;;;;20.37;4.07;;;5.50;99.90;;;;;;4851486;29;20260;-71
2024/02/01 09:35:52;;;;;;;19.93;4.93;;;5.40;99.90;;;;;;4854320;29;20529;-75
2024/02/01 09:38:19;;;;;;;26.10;4.67;;;5.50;99.90;;;;;;4867354;29;20433;-75
2024/02/01 09:40:46;;;;;;;18.03;3.70;;;5.50;99.90;;;;;;4871227;29;20423;-75
2024/02/01 09:43:20;;;;;;;29.93;5.60;;;5.50;99.90;;;;;;4835836;29;20434;-76
2024/02/01 09:45:51;;;;;;;24.77;5.30;;;5.60;99.90;;;;;;4852982;29;20473;-72
2024/02/01 09:48:18;;;;;;;21.50;3.80;;;5.50;99.90;;;;;;4854186;29;20498;-74
2024/02/01 09:50:54;;;;;;;15.50;3.53;;;5.70;99.90;;;;;;4868014;29;20426;-76
2024/02/01 09:53:22;;;;;;;13.00;4.07;;;5.70;99.90;;;;;;4856100;29;20453;-76
2024/02/01 09:55:58;;;;;;;11.47;2.73;;;5.70;99.90;;;;;;4849866;29;20478;-75
2024/02/01 09:58:28;;;;;;;17.63;3.90;;;5.60;99.90;;;;;;4847169;29;20433;-75
2024/02/01 10:00:55;;;;;;;16.10;3.03;;;5.80;99.90;;;;;;4849636;29;20445;-74
2024/02/01 10:03:26;;;;;;;13.83;3.37;;;5.70;99.90;;;;;;4869092;29;20429;-75
2024/02/01 10:05:51;;;;;;;12.33;4.13;;;6.00;99.90;;;;;;4853627;29;20457;-75
2024/02/01 10:08:18;;;;;;;16.47;3.77;;;6.10;99.90;;;;;;4867593;29;20999;-76
2024/02/01 10:10:48;;;;;;;16.23;4.20;;;6.30;99.90;;;;;;4853581;29;20193;-76
2024/02/01 10:13:16;;;;;;;21.27;3.67;;;6.40;99.90;;;;;;4854424;29;20464;-74
2024/02/01 10:15:45;;;;;;;13.70;3.10;;;6.70;99.90;;;;;;4870259;29;20462;-76
2024/02/01 10:18:29;;;;;;;16.23;4.20;;;6.90;99.90;;;;;;4854620;29;20497;-74
2024/02/01 10:20:59;;;;;;;18.93;4.33;;;7.10;99.90;;;;;;4854967;29;20441;-75
2024/02/01 10:23:25;;;;;;;10.90;3.03;;;7.20;99.90;;;;;;4852385;29;20430;-73
2024/02/01 10:25:55;;;;;;;13.00;4.07;;;7.40;99.90;;;;;;4852734;29;20465;-72
2024/02/01 10:28:23;;;;;;;15.27;4.40;;;7.50;99.90;;;;;;4865862;29;20565;-71
2024/02/01 10:30:50;;;;;;;13.00;3.63;;;7.60;99.90;;;;;;4847515;29;20432;-70
2024/02/01 10:33:17;;;;;;;14.40;3.13;;;7.80;99.90;;;;;;4864959;29;20425;-70
2024/02/01 10:35:48;;;;;;;13.30;3.43;;;8.00;99.90;;;;;;4851286;29;20553;-72
2024/02/01 10:38:20;;;;;;;17.87;3.90;;;8.00;99.90;;;;;;4852602;29;20526;-73
2024/02/01 10:41:11;;;;;;;16.90;3.93;;;8.10;99.90;;;;;;4865417;29;20454;-73
2024/02/01 10:43:41;;;;;;;17.83;4.17;;;8.20;99.90;;;;;;4849344;29;20438;-73
2024/02/01 10:46:08;;;;;;;19.23;4.17;;;8.30;99.90;;;;;;4850334;29;20474;-73
2024/02/01 10:48:50;;;;;;;11.97;2.70;;;8.40;99.90;;;;;;4850874;29;20458;-72
2024/02/01 10:51:17;;;;;;;13.87;4.27;;;8.30;99.90;;;;;;4851950;29;20428;-73
2024/02/01 10:53:44;;;;;;;16.20;4.00;;;8.40;99.90;;;;;;4846839;29;20449;-72
2024/02/01 10:56:15;;;;;;;11.13;3.30;;;8.50;99.90;;;;;;4850142;29;20974;-72
2024/02/01 10:58:47;;;;;;;14.73;3.20;;;8.70;99.90;;;;;;4849106;29;20441;-73
2024/02/01 11:01:17;;;;;;;9.60;5.10;;;8.70;99.90;;;;;;4851411;29;20422;-70
2024/02/01 11:03:56;;;;;;;17.77;3.83;;;8.80;99.90;;;;;;4836486;29;1118470;-77
2024/02/01 11:06:27;;;;;;;14.53;4.17;;;8.80;99.90;;;;;;4847894;29;20209;-74
2024/02/01 11:08:56;;;;;;;14.23;3.67;;;8.50;99.90;;;;;;4853027;29;20450;-78
2024/02/01 11:11:34;;;;;;;14.77;3.33;;;8.50;99.90;;;;;;4860669;29;20422;-78
2024/02/01 11:14:12;;;;;;;16.23;3.17;;;8.40;99.90;;;;;;4829154;29;20426;-74
2024/02/01 11:16:40;;;;;;;13.03;3.70;;;8.30;99.90;;;;;;4853459;29;20453;-73
2024/02/01 11:19:36;;;;;;;13.20;3.70;;;8.40;99.90;;;;;;4854112;29;20461;-74
2024/02/01 11:22:03;;;;;;;13.07;4.13;;;8.50;99.90;;;;;;4834587;29;20450;-74
2024/02/01 11:24:37;;;;;;;20.10;4.63;;;8.60;99.90;;;;;;4855483;29;20430;-72
2024/02/01 11:27:15;;;;;;;17.57;4.57;;;8.60;99.90;;;;;;4856306;29;20454;-75
2024/02/01 11:29:51;;;;;;;18.03;4.77;;;8.60;99.90;;;;;;4852584;29;20481;-73
2024/02/01 11:32:19;;;;;;;16.10;4.53;;;8.70;99.90;;;;;;4871367;29;20457;-75
2024/02/01 11:34:59;;;;;;;14.70;3.93;;;8.70;99.90;;;;;;4874169;29;20449;-75
2024/02/01 11:37:24;;;;;;;18.27;4.87;;;8.70;99.00;;;;;;4856816;29;20446;-73
2024/02/01 11:39:52;;;;;;;13.40;3.23;;;8.90;97.00;;;;;;4850698;29;20434;-72
2024/02/01 11:42:21;;;;;;;13.77;2.97;;;8.90;95.60;;;;;;4857280;29;20181;-72
2024/02/01 11:44:48;;;;;;;17.50;3.90;;;9.00;94.40;;;;;;4868967;29;20438;-73
2024/02/01 11:47:14;;;;;;;18.53;4.40;;;9.00;93.50;;;;;;4854531;29;20538;-73
2024/02/01 11:49:40;;;;;;;15.73;4.57;;;9.00;93.80;;;;;;4853374;29;20485;-73
2024/02/01 11:52:31;;;;;;;12.70;2.97;;;9.00;92.80;;;;;;4853042;29;20513;-74
2024/02/01 11:54:58;;;;;;;11.67;2.87;;;9.00;93.10;;;;;;4869330;29;20459;-74
2024/02/01 11:57:25;;;;;;;17.63;4.73;;;9.10;93.00;;;;;;4865272;29;20452;-75
2024/02/01 11:59:55;;;;;;;15.03;4.00;;;9.10;92.80;;;;;;4852493;29;20471;-74
2024/02/01 12:02:24;;;;;;;11.67;4.30;;;9.00;92.10;;;;;;4852983;29;20422;-73
2024/02/01 12:04:51;;;;;;;21.13;4.47;;;9.10;92.40;;;;;;4857179;29;20482;-73
2024/02/01 12:07:17;;;;;;;16.33;3.63;;;9.20;91.40;;;;;;4856252;29;20442;-75
2024/02/01 12:09:45;;;;;;;17.90;4.60;;;9.20;91.00;;;;;;4857579;29;20483;-73
2024/02/01 12:12:16;;;;;;;10.60;2.60;;;9.30;90.60;;;;;;4856587;29;20433;-76
2024/02/01 12:14:42;;;;;;;18.27;3.97;;;9.30;90.70;;;;;;4856424;29;20469;-76
2024/02/01 12:17:07;;;;;;;16.90;5.20;;;9.40;89.40;;;;;;4857819;29;20439;-75
2024/02/01 12:19:38;;;;;;;17.00;4.20;;;9.40;88.00;;;;;;4857187;29;20225;-78
2024/02/01 12:22:07;;;;;;;14.73;5.30;;;9.50;87.60;;;;;;4859207;29;20491;-77
2024/02/01 12:24:36;;;;;;;10.30;4.20;;;9.50;86.60;;;;;;4873701;29;20430;-77
2024/02/01 12:27:02;;;;;;;14.17;4.17;;;9.50;88.00;;;;;;4858254;29;20458;-75
2024/02/01 12:29:29;;;;;;;18.80;4.63;;;9.40;86.20;;;;;;4855633;29;20454;-75
2024/02/01 12:31:55;;;;;;;18.57;3.63;;;9.20;84.20;;;;;;4856371;29;20421;-76
2024/02/01 12:34:22;;;;;;;12.73;3.77;;;9.10;85.30;;;;;;4859965;29;20438;-76
2024/02/01 12:36:48;;;;;;;16.10;3.63;;;8.90;86.50;;;;;;4857978;29;20469;-77
2024/02/01 12:39:14;;;;;;;11.50;3.40;;;8.90;86.60;;;;;;4856083;29;20422;-76
2024/02/01 12:41:40;;;;;;;15.60;5.63;;;8.80;87.20;;;;;;4871216;29;20209;-75
2024/02/01 12:44:07;;;;;;;9.73;3.47;;;8.70;88.00;;;;;;4858640;29;20426;-76
2024/02/01 12:46:33;;;;;;;15.90;5.03;;;8.80;89.00;;;;;;4860190;29;20453;-77
2024/02/01 12:48:59;;;;;;;9.57;3.23;;;8.80;89.60;;;;;;4827358;29;20466;-78
2024/02/01 12:51:28;;;;;;;21.50;4.30;;;8.70;89.60;;;;;;4872188;29;20490;-75
2024/02/01 12:53:58;;;;;;;17.67;4.17;;;8.80;89.90;;;;;;4870434;29;21008;-74
2024/02/01 12:56:25;;;;;;;12.30;3.10;;;8.70;89.90;;;;;;4851756;29;21018;-74
2024/02/01 12:58:56;;;;;;;9.30;2.73;;;8.90;89.50;;;;;;4850461;29;20434;-75
2024/02/01 13:01:26;;;;;;;9.73;3.00;;;8.90;89.10;;;;;;4850936;29;20458;-75
2024/02/01 13:03:52;;;;;;;18.50;4.80;;;9.00;89.00;;;;;;4851120;29;20481;-75
2024/02/01 13:06:18;;;;;;;21.57;5.90;;;8.90;88.80;;;;;;4855065;29;20450;-77
2024/02/01 13:08:44;;;;;;;14.30;4.27;;;8.80;90.00;;;;;;4854778;29;20465;-74
2024/02/01 13:11:11;;;;;;;15.60;3.20;;;8.90;89.90;;;;;;4852289;29;20476;-74
2024/02/01 13:13:39;;;;;;;13.70;3.53;;;8.90;89.90;;;;;;4849817;29;20442;-74
2024/02/01 13:16:06;;;;;;;15.80;4.03;;;8.80;90.10;;;;;;4853045;29;20462;-73
2024/02/01 13:18:32;;;;;;;14.60;4.30;;;8.70;90.40;;;;;;4851684;29;20594;-77
2024/02/01 13:20:58;;;;;;;13.43;4.20;;;8.60;90.40;;;;;;4853213;29;20510;-76
2024/02/01 13:23:24;;;;;;;12.20;2.80;;;8.60;90.50;;;;;;4853823;29;20181;-75
2024/02/01 13:25:50;;;;;;;10.07;3.00;;;8.60;90.70;;;;;;4852910;29;20216;-75
2024/02/01 13:28:16;;;;;;;9.37;3.67;;;8.60;90.70;;;;;;4849405;29;20474;-75
2024/02/01 13:30:45;;;;;;;12.17;3.50;;;8.70;90.50;;;;;;4851255;29;20429;-74
2024/02/01 13:33:14;;;;;;;22.93;3.67;;;8.70;90.10;;;;;;4858956;29;20486;-80
2024/02/01 13:36:02;;;;;;;15.63;3.10;;;8.60;90.00;;;;;;4865987;29;20446;-82
2024/02/01 13:39:11;;;;;;;6.13;2.13;;;8.60;90.20;;;;;;4839941;29;20442;-80